sensor_id;sensor_type;location;lat;lon;timestamp;pressure;altitude;pressure_sealevel;temperature;humidity
54882;BME280;40775;51.448;4.742;2023-03-12T00:01:19;101013.34;;;5.22;100.00
54882;BME280;40775;51.448;4.742;2023-03-12T00:03:47;101012.22;;;5.17;100.00
54882;BME280;40775;51.448;4.742;2023-03-12T00:06:16;101006.25;;;5.20;100.00
54882;BME280;40775;51.448;4.742;2023-03-12T00:08:44;101002.94;;;5.22;100.00
54882;BME280;40775;51.448;4.742;2023-03-12T00:11:20;101002.09;;;5.23;100.00
54882;BME280;40775;51.448;4.742;2023-03-12T00:13:52;101004.56;;;5.20;100.00
54882;BME280;40775;51.448;4.742;2023-03-12T00:16:23;101002.84;;;5.21;100.00
54882;BME280;40775;51.448;4.742;2023-03-12T00:18:53;101008.13;;;5.22;100.00
54882;BME280;40775;51.448;4.742;2023-03-12T00:21:21;101006.34;;;5.21;100.00
54882;BME280;40775;51.448;4.742;2023-03-12T00:23:50;101008.97;;;5.21;100.00
54882;BME280;40775;51.448;4.742;2023-03-12T00:26:19;101008.97;;;5.21;100.00
54882;BME280;40775;51.448;4.742;2023-03-12T00:28:48;101005.59;;;5.24;100.00
54882;BME280;40775;51.448;4.742;2023-03-12T00:31:28;101004.72;;;5.23;100.00
54882;BME280;40775;51.448;4.742;2023-03-12T00:33:59;100998.81;;;5.27;100.00
54882;BME280;40775;51.448;4.742;2023-03-12T00:36:29;100994.50;;;5.28;100.00
54882;BME280;40775;51.448;4.742;2023-03-12T00:38:58;100984.16;;;5.30;100.00
54882;BME280;40775;51.448;4.742;2023-03-12T00:41:26;100977.03;;;5.25;100.00
54882;BME280;40775;51.448;4.742;2023-03-12T00:43:53;100975.38;;;5.27;100.00
54882;BME280;40775;51.448;4.742;2023-03-12T00:46:21;100962.56;;;5.32;100.00
54882;BME280;40775;51.448;4.742;2023-03-12T00:48:48;100974.50;;;5.27;100.00
54882;BME280;40775;51.448;4.742;2023-03-12T00:51:15;100968.41;;;5.26;100.00
54882;BME280;40775;51.448;4.742;2023-03-12T00:53:43;100964.97;;;5.27;100.00
54882;BME280;40775;51.448;4.742;2023-03-12T00:56:10;100966.69;;;5.27;100.00
54882;BME280;40775;51.448;4.742;2023-03-12T00:58:37;100968.47;;;5.28;100.00
54882;BME280;40775;51.448;4.742;2023-03-12T01:01:04;100955.44;;;5.28;100.00
54882;BME280;40775;51.448;4.742;2023-03-12T01:03:32;100963.06;;;5.23;100.00
54882;BME280;40775;51.448;4.742;2023-03-12T01:05:59;100951.00;;;5.25;100.00
54882;BME280;40775;51.448;4.742;2023-03-12T01:08:26;100945.09;;;5.30;100.00
54882;BME280;40775;51.448;4.742;2023-03-12T01:10:53;100949.22;;;5.24;100.00
54882;BME280;40775;51.448;4.742;2023-03-12T01:13:21;100942.25;;;5.23;100.00
54882;BME280;40775;51.448;4.742;2023-03-12T01:15:48;100954.50;;;5.26;100.00
54882;BME280;40775;51.448;4.742;2023-03-12T01:18:15;100938.81;;;5.24;100.00
54882;BME280;40775;51.448;4.742;2023-03-12T01:20:42;100934.63;;;5.28;100.00
54882;BME280;40775;51.448;4.742;2023-03-12T01:23:09;100939.97;;;5.31;100.00
54882;BME280;40775;51.448;4.742;2023-03-12T01:25:36;100927.72;;;5.28;100.00
54882;BME280;40775;51.448;4.742;2023-03-12T01:28:03;100936.53;;;5.32;100.00
54882;BME280;40775;51.448;4.742;2023-03-12T01:30:31;100926.75;;;5.26;100.00
54882;BME280;40775;51.448;4.742;2023-03-12T01:32:58;100928.53;;;5.27;100.00
54882;BME280;40775;51.448;4.742;2023-03-12T01:35:25;100939.00;;;5.29;100.00
54882;BME280;40775;51.448;4.742;2023-03-12T01:37:52;100933.09;;;5.33;100.00
54882;BME280;40775;51.448;4.742;2023-03-12T01:40:23;100923.41;;;5.29;100.00
54882;BME280;40775;51.448;4.742;2023-03-12T01:42:56;100927.91;;;5.33;100.00
54882;BME280;40775;51.448;4.742;2023-03-12T01:48:44;100915.66;;;5.31;100.00
54882;BME280;40775;51.448;4.742;2023-03-12T01:51:15;100914.88;;;5.33;100.00
54882;BME280;40775;51.448;4.742;2023-03-12T01:53:47;100913.03;;;5.31;100.00
54882;BME280;40775;51.448;4.742;2023-03-12T01:56:17;100917.50;;;5.33;100.00
54882;BME280;40775;51.448;4.742;2023-03-12T01:58:51;100899.16;;;5.30;100.00
54882;BME280;40775;51.448;4.742;2023-03-12T02:01:19;100893.81;;;5.27;100.00
54882;BME280;40775;51.448;4.742;2023-03-12T02:03:50;100891.34;;;5.30;100.00
54882;BME280;40775;51.448;4.742;2023-03-12T02:06:28;100881.88;;;5.32;100.00
54882;BME280;40775;51.448;4.742;2023-03-12T02:08:57;100877.50;;;5.31;100.00
54882;BME280;40775;51.448;4.742;2023-03-12T02:11:26;100883.53;;;5.30;100.00
54882;BME280;40775;51.448;4.742;2023-03-12T02:13:53;100894.81;;;5.31;100.00
54882;BME280;40775;51.448;4.742;2023-03-12T02:16:20;100900.97;;;5.33;100.00
54882;BME280;40775;51.448;4.742;2023-03-12T02:18:49;100901.88;;;5.33;100.00
54882;BME280;40775;51.448;4.742;2023-03-12T02:21:28;100908.78;;;5.33;100.00
54882;BME280;40775;51.448;4.742;2023-03-12T02:26:56;100897.31;;;5.27;100.00
54882;BME280;40775;51.448;4.742;2023-03-12T02:29:27;100896.41;;;5.27;100.00
54882;BME280;40775;51.448;4.742;2023-03-12T02:31:57;100883.28;;;5.24;100.00
54882;BME280;40775;51.448;4.742;2023-03-12T02:34:25;100876.22;;;5.21;100.00
54882;BME280;40775;51.448;4.742;2023-03-12T02:36:52;100880.38;;;5.18;100.00
54882;BME280;40775;51.448;4.742;2023-03-12T02:39:20;100875.34;;;5.21;100.00
54882;BME280;40775;51.448;4.742;2023-03-12T02:41:51;100875.13;;;5.16;100.00
54882;BME280;40775;51.448;4.742;2023-03-12T02:44:31;100861.28;;;5.17;100.00
54882;BME280;40775;51.448;4.742;2023-03-12T02:47:00;100862.00;;;5.13;100.00
54882;BME280;40775;51.448;4.742;2023-03-12T02:49:31;100868.91;;;5.13;100.00
54882;BME280;40775;51.448;4.742;2023-03-12T02:51:59;100867.31;;;5.16;100.00
54882;BME280;40775;51.448;4.742;2023-03-12T02:54:27;100859.38;;;5.13;100.00
54882;BME280;40775;51.448;4.742;2023-03-12T02:56:54;100861.22;;;5.16;100.00
54882;BME280;40775;51.448;4.742;2023-03-12T02:59:23;100862.81;;;5.12;100.00
54882;BME280;40775;51.448;4.742;2023-03-12T03:01:58;100866.38;;;5.14;100.00
54882;BME280;40775;51.448;4.742;2023-03-12T03:04:29;100877.47;;;5.10;100.00
54882;BME280;40775;51.448;4.742;2023-03-12T03:06:57;100865.53;;;5.15;100.00
54882;BME280;40775;51.448;4.742;2023-03-12T03:09:24;100861.16;;;5.14;100.00
54882;BME280;40775;51.448;4.742;2023-03-12T03:11:51;100865.47;;;5.14;100.00
54882;BME280;40775;51.448;4.742;2023-03-12T03:14:19;100855.13;;;5.15;100.00
54882;BME280;40775;51.448;4.742;2023-03-12T03:16:46;100851.56;;;5.13;100.00
54882;BME280;40775;51.448;4.742;2023-03-12T03:19:13;100837.75;;;5.14;100.00
54882;BME280;40775;51.448;4.742;2023-03-12T03:21:40;100826.50;;;5.15;100.00
54882;BME280;40775;51.448;4.742;2023-03-12T03:24:07;100817.00;;;5.16;100.00
54882;BME280;40775;51.448;4.742;2023-03-12T03:26:35;100829.03;;;5.14;100.00
54882;BME280;40775;51.448;4.742;2023-03-12T03:29:02;100828.16;;;5.13;100.00
54882;BME280;40775;51.448;4.742;2023-03-12T03:31:29;100832.66;;;5.17;100.00
54882;BME280;40775;51.448;4.742;2023-03-12T03:33:56;100831.53;;;5.11;100.00
54882;BME280;40775;51.448;4.742;2023-03-12T03:36:23;100834.50;;;5.20;100.00
54882;BME280;40775;51.448;4.742;2023-03-12T03:38:50;100817.06;;;5.17;100.00
54882;BME280;40775;51.448;4.742;2023-03-12T03:41:18;100825.00;;;5.20;100.00
54882;BME280;40775;51.448;4.742;2023-03-12T03:43:46;100827.34;;;5.14;100.00
54882;BME280;40775;51.448;4.742;2023-03-12T03:46:14;100828.41;;;5.19;100.00
54882;BME280;40775;51.448;4.742;2023-03-12T03:48:41;100836.22;;;5.19;100.00
54882;BME280;40775;51.448;4.742;2023-03-12T03:51:10;100831.00;;;5.19;100.00
54882;BME280;40775;51.448;4.742;2023-03-12T03:53:37;100816.44;;;5.23;100.00
54882;BME280;40775;51.448;4.742;2023-03-12T03:56:13;100816.09;;;5.15;100.00
54882;BME280;40775;51.448;4.742;2023-03-12T03:58:41;100818.69;;;5.15;100.00
54882;BME280;40775;51.448;4.742;2023-03-12T04:01:10;100815.41;;;5.19;100.00
54882;BME280;40775;51.448;4.742;2023-03-12T04:03:38;100819.81;;;5.20;100.00
54882;BME280;40775;51.448;4.742;2023-03-12T04:06:06;100806.97;;;5.25;100.00
54882;BME280;40775;51.448;4.742;2023-03-12T04:08:34;100805.31;;;5.27;100.00
54882;BME280;40775;51.448;4.742;2023-03-12T04:11:08;100821.38;;;5.17;100.00
54882;BME280;40775;51.448;4.742;2023-03-12T04:13:35;100818.97;;;5.21;100.00
54882;BME280;40775;51.448;4.742;2023-03-12T04:16:03;100814.59;;;5.20;100.00
54882;BME280;40775;51.448;4.742;2023-03-12T04:18:30;100816.81;;;5.11;100.00
54882;BME280;40775;51.448;4.742;2023-03-12T04:20:58;100808.56;;;5.21;100.00
54882;BME280;40775;51.448;4.742;2023-03-12T04:23:25;100811.28;;;5.24;100.00
54882;BME280;40775;51.448;4.742;2023-03-12T04:25:52;100799.88;;;5.21;100.00
54882;BME280;40775;51.448;4.742;2023-03-12T04:28:19;100800.59;;;5.18;100.00
54882;BME280;40775;51.448;4.742;2023-03-12T04:30:57;100798.91;;;5.19;100.00
54882;BME280;40775;51.448;4.742;2023-03-12T04:33:31;100785.88;;;5.19;100.00
54882;BME280;40775;51.448;4.742;2023-03-12T04:35:58;100773.75;;;5.19;100.00
54882;BME280;40775;51.448;4.742;2023-03-12T04:38:27;100764.44;;;5.24;100.00
54882;BME280;40775;51.448;4.742;2023-03-12T04:41:06;100755.94;;;5.28;100.00
54882;BME280;40775;51.448;4.742;2023-03-12T04:43:34;100745.47;;;5.27;100.00
54882;BME280;40775;51.448;4.742;2023-03-12T04:46:03;100749.97;;;5.31;100.00
54882;BME280;40775;51.448;4.742;2023-03-12T04:48:30;100753.94;;;5.21;100.00
54882;BME280;40775;51.448;4.742;2023-03-12T04:50:57;100756.13;;;5.33;100.00
54882;BME280;40775;51.448;4.742;2023-03-12T04:53:24;100758.59;;;5.30;100.00
54882;BME280;40775;51.448;4.742;2023-03-12T04:55:55;100737.47;;;5.22;100.00
54882;BME280;40775;51.448;4.742;2023-03-12T04:58:23;100751.44;;;5.24;100.00
54882;BME280;40775;51.448;4.742;2023-03-12T05:00:50;100743.88;;;5.31;100.00
54882;BME280;40775;51.448;4.742;2023-03-12T05:03:17;100748.78;;;5.23;100.00
54882;BME280;40775;51.448;4.742;2023-03-12T05:05:44;100743.69;;;5.26;100.00
54882;BME280;40775;51.448;4.742;2023-03-12T05:08:13;100754.22;;;5.29;100.00
54882;BME280;40775;51.448;4.742;2023-03-12T05:10:40;100750.25;;;5.39;100.00
54882;BME280;40775;51.448;4.742;2023-03-12T05:13:20;100744.25;;;5.19;100.00
54882;BME280;40775;51.448;4.742;2023-03-12T05:15:48;100743.03;;;5.32;100.00
54882;BME280;40775;51.448;4.742;2023-03-12T05:18:16;100737.47;;;5.22;100.00
54882;BME280;40775;51.448;4.742;2023-03-12T05:20:46;100733.56;;;5.34;100.00
54882;BME280;40775;51.448;4.742;2023-03-12T05:23:13;100732.56;;;5.30;100.00
54882;BME280;40775;51.448;4.742;2023-03-12T05:25:41;100735.13;;;5.28;100.00
54882;BME280;40775;51.448;4.742;2023-03-12T05:28:09;100724.81;;;5.32;100.00
54882;BME280;40775;51.448;4.742;2023-03-12T05:30:38;100729.09;;;5.30;100.00
54882;BME280;40775;51.448;4.742;2023-03-12T05:33:05;100730.84;;;5.31;100.00
54882;BME280;40775;51.448;4.742;2023-03-12T05:35:32;100731.09;;;5.37;100.00
54882;BME280;40775;51.448;4.742;2023-03-12T05:37:59;100726.59;;;5.33;100.00
54882;BME280;40775;51.448;4.742;2023-03-12T05:40:26;100731.91;;;5.36;100.00
54882;BME280;40775;51.448;4.742;2023-03-12T05:42:53;100737.00;;;5.33;100.00
54882;BME280;40775;51.448;4.742;2023-03-12T05:45:20;100737.91;;;5.33;100.00
54882;BME280;40775;51.448;4.742;2023-03-12T05:47:47;100739.59;;;5.33;100.00
54882;BME280;40775;51.448;4.742;2023-03-12T05:50:17;100731.75;;;5.31;100.00
54882;BME280;40775;51.448;4.742;2023-03-12T05:52:45;100737.19;;;5.37;100.00
54882;BME280;40775;51.448;4.742;2023-03-12T05:55:13;100745.22;;;5.43;100.00
54882;BME280;40775;51.448;4.742;2023-03-12T05:57:45;100744.06;;;5.57;100.00
54882;BME280;40775;51.448;4.742;2023-03-12T06:00:21;100745.06;;;5.39;100.00
54882;BME280;40775;51.448;4.742;2023-03-12T06:02:48;100742.84;;;5.48;100.00
54882;BME280;40775;51.448;4.742;2023-03-12T06:05:18;100739.00;;;5.40;100.00
54882;BME280;40775;51.448;4.742;2023-03-12T06:07:45;100746.06;;;5.42;100.00
54882;BME280;40775;51.448;4.742;2023-03-12T06:10:12;100750.13;;;5.36;100.00
54882;BME280;40775;51.448;4.742;2023-03-12T06:12:39;100746.94;;;5.43;100.00
54882;BME280;40775;51.448;4.742;2023-03-12T06:15:07;100752.03;;;5.40;100.00
54882;BME280;40775;51.448;4.742;2023-03-12T06:17:34;100744.09;;;5.37;100.00
54882;BME280;40775;51.448;4.742;2023-03-12T06:20:01;100729.56;;;5.42;100.00
54882;BME280;40775;51.448;4.742;2023-03-12T06:22:28;100722.50;;;5.39;100.00
54882;BME280;40775;51.448;4.742;2023-03-12T06:24:56;100723.50;;;5.43;100.00
54882;BME280;40775;51.448;4.742;2023-03-12T06:27:23;100718.31;;;5.43;100.00
54882;BME280;40775;51.448;4.742;2023-03-12T06:29:50;100715.25;;;5.53;100.00
54882;BME280;40775;51.448;4.742;2023-03-12T06:32:17;100709.88;;;5.48;100.00
54882;BME280;40775;51.448;4.742;2023-03-12T06:34:44;100716.19;;;5.55;100.00
54882;BME280;40775;51.448;4.742;2023-03-12T06:37:11;100716.84;;;5.49;100.00
54882;BME280;40775;51.448;4.742;2023-03-12T06:39:38;100717.84;;;5.53;100.00
54882;BME280;40775;51.448;4.742;2023-03-12T06:42:05;100718.63;;;5.50;100.00
54882;BME280;40775;51.448;4.742;2023-03-12T06:44:33;100727.31;;;5.51;100.00
54882;BME280;40775;51.448;4.742;2023-03-12T06:47:00;100724.94;;;5.57;100.00
54882;BME280;40775;51.448;4.742;2023-03-12T06:49:27;100719.63;;;5.54;100.00
54882;BME280;40775;51.448;4.742;2023-03-12T06:52:01;100722.47;;;5.60;100.00
54882;BME280;40775;51.448;4.742;2023-03-12T06:54:28;100714.75;;;5.63;100.00
54882;BME280;40775;51.448;4.742;2023-03-12T06:56:55;100715.47;;;5.59;100.00
54882;BME280;40775;51.448;4.742;2023-03-12T06:59:25;100711.03;;;5.56;100.00
54882;BME280;40775;51.448;4.742;2023-03-12T07:01:52;100716.41;;;5.61;100.00
54882;BME280;40775;51.448;4.742;2023-03-12T07:04:19;100717.47;;;5.66;100.00
54882;BME280;40775;51.448;4.742;2023-03-12T07:06:46;100724.63;;;5.72;100.00
54882;BME280;40775;51.448;4.742;2023-03-12T07:09:19;100724.75;;;5.75;100.00
54882;BME280;40775;51.448;4.742;2023-03-12T07:11:46;100721.50;;;5.80;100.00
54882;BME280;40775;51.448;4.742;2023-03-12T07:14:13;100723.34;;;5.83;100.00
54882;BME280;40775;51.448;4.742;2023-03-12T07:16:40;100723.16;;;5.78;100.00
54882;BME280;40775;51.448;4.742;2023-03-12T07:19:07;100721.66;;;5.85;100.00
54882;BME280;40775;51.448;4.742;2023-03-12T07:21:34;100726.94;;;5.86;100.00
54882;BME280;40775;51.448;4.742;2023-03-12T07:24:01;100733.97;;;5.89;100.00
54882;BME280;40775;51.448;4.742;2023-03-12T07:26:33;100730.56;;;5.90;100.00
54882;BME280;40775;51.448;4.742;2023-03-12T07:29:02;100729.78;;;5.93;100.00
54882;BME280;40775;51.448;4.742;2023-03-12T07:31:30;100738.50;;;5.93;100.00
54882;BME280;40775;51.448;4.742;2023-03-12T07:33:57;100742.97;;;5.97;100.00
54882;BME280;40775;51.448;4.742;2023-03-12T07:36:24;100740.53;;;6.02;100.00
54882;BME280;40775;51.448;4.742;2023-03-12T07:38:52;100735.28;;;6.00;100.00
54882;BME280;40775;51.448;4.742;2023-03-12T07:41:19;100743.28;;;6.05;100.00
54882;BME280;40775;51.448;4.742;2023-03-12T07:43:46;100744.22;;;6.07;100.00
54882;BME280;40775;51.448;4.742;2023-03-12T07:46:13;100746.22;;;6.14;100.00
54882;BME280;40775;51.448;4.742;2023-03-12T07:48:41;100741.91;;;6.14;100.00
54882;BME280;40775;51.448;4.742;2023-03-12T07:51:12;100738.72;;;6.23;100.00
54882;BME280;40775;51.448;4.742;2023-03-12T07:53:41;100740.66;;;6.29;100.00
54882;BME280;40775;51.448;4.742;2023-03-12T07:56:10;100739.28;;;6.38;100.00
54882;BME280;40775;51.448;4.742;2023-03-12T07:58:37;100748.09;;;6.42;100.00
54882;BME280;40775;51.448;4.742;2023-03-12T08:01:17;100745.81;;;6.51;100.00
54882;BME280;40775;51.448;4.742;2023-03-12T08:03:56;100752.34;;;6.64;100.00
54882;BME280;40775;51.448;4.742;2023-03-12T08:06:25;100758.59;;;6.69;100.00
54882;BME280;40775;51.448;4.742;2023-03-12T08:08:56;100752.66;;;6.73;100.00
54882;BME280;40775;51.448;4.742;2023-03-12T08:11:24;100758.84;;;6.76;100.00
54882;BME280;40775;51.448;4.742;2023-03-12T08:13:51;100763.25;;;6.77;100.00
54882;BME280;40775;51.448;4.742;2023-03-12T08:16:18;100777.28;;;6.81;100.00
54882;BME280;40775;51.448;4.742;2023-03-12T08:18:46;100775.56;;;6.81;100.00
54882;BME280;40775;51.448;4.742;2023-03-12T08:21:13;100783.56;;;6.86;100.00
54882;BME280;40775;51.448;4.742;2023-03-12T08:23:42;100788.88;;;6.89;100.00
54882;BME280;40775;51.448;4.742;2023-03-12T08:26:10;100789.88;;;6.93;100.00
54882;BME280;40775;51.448;4.742;2023-03-12T08:28:37;100792.56;;;6.96;100.00
54882;BME280;40775;51.448;4.742;2023-03-12T08:31:04;100800.56;;;7.00;100.00
54882;BME280;40775;51.448;4.742;2023-03-12T08:33:32;100800.75;;;7.06;100.00
54882;BME280;40775;51.448;4.742;2023-03-12T08:35:59;100803.50;;;7.11;100.00
54882;BME280;40775;51.448;4.742;2023-03-12T08:38:26;100811.53;;;7.16;100.00
54882;BME280;40775;51.448;4.742;2023-03-12T08:40:56;100804.69;;;7.19;100.00
54882;BME280;40775;51.448;4.742;2023-03-12T08:43:24;100812.75;;;7.27;100.00
54882;BME280;40775;51.448;4.742;2023-03-12T08:46:00;100819.75;;;7.28;100.00
54882;BME280;40775;51.448;4.742;2023-03-12T08:48:30;100814.56;;;7.29;100.00
54882;BME280;40775;51.448;4.742;2023-03-12T08:50:59;100826.09;;;7.36;100.00
54882;BME280;40775;51.448;4.742;2023-03-12T08:53:30;100824.44;;;7.38;100.00
54882;BME280;40775;51.448;4.742;2023-03-12T08:55:58;100829.97;;;7.47;100.00
54882;BME280;40775;51.448;4.742;2023-03-12T08:58:26;100826.56;;;7.50;100.00
54882;BME280;40775;51.448;4.742;2023-03-12T09:00:54;100834.63;;;7.57;100.00
54882;BME280;40775;51.448;4.742;2023-03-12T09:03:23;100820.75;;;7.58;100.00
54882;BME280;40775;51.448;4.742;2023-03-12T09:06:11;100822.00;;;7.69;100.00
54882;BME280;40775;51.448;4.742;2023-03-12T09:08:45;100823.94;;;7.77;100.00
54882;BME280;40775;51.448;4.742;2023-03-12T09:11:14;100831.13;;;7.84;100.00
54882;BME280;40775;51.448;4.742;2023-03-12T09:13:41;100829.84;;;7.98;100.00
54882;BME280;40775;51.448;4.742;2023-03-12T09:16:28;100825.72;;;8.06;100.00
54882;BME280;40775;51.448;4.742;2023-03-12T09:18:55;100818.91;;;8.11;100.00
54882;BME280;40775;51.448;4.742;2023-03-12T09:21:22;100829.72;;;8.23;100.00
54882;BME280;40775;51.448;4.742;2023-03-12T09:23:49;100822.78;;;8.24;100.00
54882;BME280;40775;51.448;4.742;2023-03-12T09:26:19;100826.44;;;8.30;100.00
54882;BME280;40775;51.448;4.742;2023-03-12T09:28:46;100834.53;;;8.38;100.00
54882;BME280;40775;51.448;4.742;2023-03-12T09:31:13;100845.09;;;8.41;100.00
54882;BME280;40775;51.448;4.742;2023-03-12T09:33:40;100853.06;;;8.46;100.00
54882;BME280;40775;51.448;4.742;2023-03-12T09:36:08;100850.66;;;8.52;100.00
54882;BME280;40775;51.448;4.742;2023-03-12T09:38:35;100857.69;;;8.54;100.00
54882;BME280;40775;51.448;4.742;2023-03-12T09:41:10;100865.03;;;8.67;100.00
54882;BME280;40775;51.448;4.742;2023-03-12T09:43:42;100873.06;;;8.74;100.00
54882;BME280;40775;51.448;4.742;2023-03-12T09:46:21;100870.59;;;8.78;100.00
54882;BME280;40775;51.448;4.742;2023-03-12T09:48:52;100874.09;;;8.79;100.00
54882;BME280;40775;51.448;4.742;2023-03-12T09:51:48;100868.94;;;8.82;100.00
54882;BME280;40775;51.448;4.742;2023-03-12T09:54:35;100871.69;;;8.86;100.00
54882;BME280;40775;51.448;4.742;2023-03-12T09:57:11;100868.28;;;8.90;100.00
54882;BME280;40775;51.448;4.742;2023-03-12T09:59:40;100875.47;;;8.97;100.00
54882;BME280;40775;51.448;4.742;2023-03-12T10:02:33;100877.25;;;8.98;100.00
54882;BME280;40775;51.448;4.742;2023-03-12T10:20:27;100891.63;;;9.47;100.00
54882;BME280;40775;51.448;4.742;2023-03-12T10:23:24;100876.06;;;9.53;100.00
54882;BME280;40775;51.448;4.742;2023-03-12T10:29:15;100862.34;;;9.64;100.00
54882;BME280;40775;51.448;4.742;2023-03-12T10:31:56;100863.22;;;9.64;100.00
54882;BME280;40775;51.448;4.742;2023-03-12T10:40:23;100866.31;;;9.84;100.00
54882;BME280;40775;51.448;4.742;2023-03-12T10:42:51;100861.91;;;9.83;100.00
54882;BME280;40775;51.448;4.742;2023-03-12T10:45:36;100867.22;;;9.86;100.00
54882;BME280;40775;51.448;4.742;2023-03-12T10:48:08;100874.38;;;9.91;100.00
54882;BME280;40775;51.448;4.742;2023-03-12T10:50:39;100876.09;;;9.89;100.00
54882;BME280;40775;51.448;4.742;2023-03-12T10:53:32;100875.25;;;9.92;100.00
54882;BME280;40775;51.448;4.742;2023-03-12T10:56:12;100875.44;;;10.00;100.00
54882;BME280;40775;51.448;4.742;2023-03-12T10:58:43;100887.78;;;10.05;100.00
54882;BME280;40775;51.448;4.742;2023-03-12T11:01:30;100868.88;;;10.18;100.00
54882;BME280;40775;51.448;4.742;2023-03-12T11:04:20;100874.28;;;10.25;100.00
54882;BME280;40775;51.448;4.742;2023-03-12T11:09:38;100867.44;;;10.33;100.00
54882;BME280;40775;51.448;4.742;2023-03-12T11:12:26;100859.84;;;10.43;100.00
54882;BME280;40775;51.448;4.742;2023-03-12T11:14:54;100866.09;;;10.50;100.00
54882;BME280;40775;51.448;4.742;2023-03-12T11:17:28;100857.28;;;10.48;100.00
54882;BME280;40775;51.448;4.742;2023-03-12T11:19:55;100861.94;;;10.61;100.00
54882;BME280;40775;51.448;4.742;2023-03-12T11:22:33;100856.69;;;10.61;100.00
54882;BME280;40775;51.448;4.742;2023-03-12T11:25:06;100856.78;;;10.67;100.00
54882;BME280;40775;51.448;4.742;2023-03-12T11:27:44;100863.13;;;10.77;100.00
54882;BME280;40775;51.448;4.742;2023-03-12T11:30:22;100858.88;;;10.83;100.00
54882;BME280;40775;51.448;4.742;2023-03-12T11:32:50;100861.78;;;10.97;100.00
54882;BME280;40775;51.448;4.742;2023-03-12T11:35:37;100849.81;;;11.13;100.00
54882;BME280;40775;51.448;4.742;2023-03-12T11:38:24;100855.31;;;11.27;100.00
54882;BME280;40775;51.448;4.742;2023-03-12T11:41:39;100849.00;;;11.17;100.00
54882;BME280;40775;51.448;4.742;2023-03-12T11:47:31;100842.44;;;11.43;100.00
54882;BME280;40775;51.448;4.742;2023-03-12T11:50:14;100849.47;;;11.44;100.00
54882;BME280;40775;51.448;4.742;2023-03-12T12:02:36;100819.50;;;11.86;100.00
54882;BME280;40775;51.448;4.742;2023-03-12T12:06:30;100814.16;;;11.80;100.00
54882;BME280;40775;51.448;4.742;2023-03-12T12:08:38;100808.91;;;11.80;100.00
54882;BME280;40775;51.448;4.742;2023-03-12T12:17:27;100799.38;;;11.90;100.00
54882;BME280;40775;51.448;4.742;2023-03-12T12:31:55;100803.19;;;12.12;100.00
54882;BME280;40775;51.448;4.742;2023-03-12T12:40:43;100769.03;;;12.16;100.00
54882;BME280;40775;51.448;4.742;2023-03-12T12:43:39;100769.13;;;12.24;100.00
54882;BME280;40775;51.448;4.742;2023-03-12T12:46:33;100769.06;;;12.18;100.00
54882;BME280;40775;51.448;4.742;2023-03-12T12:51:57;100750.75;;;12.27;100.00
54882;BME280;40775;51.448;4.742;2023-03-12T12:54:50;100750.75;;;12.27;100.00
54882;BME280;40775;51.448;4.742;2023-03-12T12:58:00;100745.56;;;12.33;100.00
54882;BME280;40775;51.448;4.742;2023-03-12T13:00:36;100758.75;;;12.34;100.00
54882;BME280;40775;51.448;4.742;2023-03-12T13:03:05;100750.69;;;12.22;100.00
54882;BME280;40775;51.448;4.742;2023-03-12T13:08:04;100738.56;;;12.35;100.00
54882;BME280;40775;51.448;4.742;2023-03-12T13:13:08;100736.69;;;12.25;100.00
54882;BME280;40775;51.448;4.742;2023-03-12T13:15:39;100741.03;;;12.21;100.00
54882;BME280;40775;51.448;4.742;2023-03-12T13:18:57;100747.19;;;12.22;100.00
54882;BME280;40775;51.448;4.742;2023-03-12T13:24:44;100726.16;;;12.25;100.00
54882;BME280;40775;51.448;4.742;2023-03-12T13:27:39;100720.00;;;12.24;100.00
54882;BME280;40775;51.448;4.742;2023-03-12T13:33:10;100720.13;;;12.33;100.00
54882;BME280;40775;51.448;4.742;2023-03-12T13:35:39;100724.53;;;12.36;100.00
54882;BME280;40775;51.448;4.742;2023-03-12T13:38:16;100728.09;;;12.41;100.00
54882;BME280;40775;51.448;4.742;2023-03-12T13:40:58;100741.25;;;12.40;100.00
54882;BME280;40775;51.448;4.742;2023-03-12T13:49:01;100724.66;;;12.47;100.00
54882;BME280;40775;51.448;4.742;2023-03-12T13:51:29;100724.66;;;12.48;100.00
54882;BME280;40775;51.448;4.742;2023-03-12T13:54:00;100740.44;;;12.45;100.00
54882;BME280;40775;51.448;4.742;2023-03-12T13:56:32;100748.31;;;12.42;100.00
54882;BME280;40775;51.448;4.742;2023-03-12T13:59:03;100764.97;;;12.41;100.00
54882;BME280;40775;51.448;4.742;2023-03-12T14:01:37;100764.97;;;12.41;100.00
54882;BME280;40775;51.448;4.742;2023-03-12T14:04:19;100761.28;;;12.27;100.00
54882;BME280;40775;51.448;4.742;2023-03-12T14:12:45;100753.38;;;12.28;100.00
54882;BME280;40775;51.448;4.742;2023-03-12T14:16:01;100752.50;;;12.28;100.00
54882;BME280;40775;51.448;4.742;2023-03-12T14:18:33;100755.25;;;12.35;100.00
54882;BME280;40775;51.448;4.742;2023-03-12T14:21:11;100751.75;;;12.36;100.00
54882;BME280;40775;51.448;4.742;2023-03-12T14:23:48;100753.53;;;12.39;100.00
54882;BME280;40775;51.448;4.742;2023-03-12T14:26:27;100745.66;;;12.42;100.00
54882;BME280;40775;51.448;4.742;2023-03-12T14:29:09;100750.97;;;12.45;100.00
54882;BME280;40775;51.448;4.742;2023-03-12T14:31:46;100744.91;;;12.54;100.00
54882;BME280;40775;51.448;4.742;2023-03-12T14:34:22;100752.03;;;12.61;100.00
54882;BME280;40775;51.448;4.742;2023-03-12T14:37:14;100743.19;;;12.59;100.00
54882;BME280;40775;51.448;4.742;2023-03-12T14:39:54;100746.75;;;12.61;100.00
54882;BME280;40775;51.448;4.742;2023-03-12T14:42:31;100747.66;;;12.61;100.00
54882;BME280;40775;51.448;4.742;2023-03-12T14:45:12;100737.00;;;12.55;100.00
54882;BME280;40775;51.448;4.742;2023-03-12T14:47:46;100737.88;;;12.54;100.00